createdAt,value
2022-09-03T00:02:11.235Z,98115.16
2022-09-03T00:04:37.419Z,98127.63
2022-09-03T00:07:03.626Z,98128.16
2022-09-03T00:09:29.818Z,98128.72
2022-09-03T00:11:56.920Z,98129.56
2022-09-03T00:14:23.091Z,98124.34
2022-09-03T00:16:49.304Z,98117.78
2022-09-03T00:19:15.490Z,98126.91
2022-09-03T00:21:41.649Z,98122.56
2022-09-03T00:24:07.822Z,98130.25
2022-09-03T00:26:40.628Z,98124.97
2022-09-03T00:29:06.783Z,98117.97
2022-09-03T00:31:33.016Z,98120.88
2022-09-03T00:33:59.264Z,98122.50
2022-09-03T00:36:25.462Z,98118.66
2022-09-03T00:38:51.624Z,98121.78
2022-09-03T00:41:17.805Z,98123.19
2022-09-03T00:43:43.953Z,98115.97
2022-09-03T00:46:10.199Z,98125.84
2022-09-03T00:48:36.448Z,98113.72
2022-09-03T00:51:05.522Z,98116.06
2022-09-03T00:53:31.745Z,98113.22
2022-09-03T00:55:58.003Z,98118.28
2022-09-03T00:58:24.219Z,98116.72
2022-09-03T01:00:50.534Z,98117.31
2022-09-03T01:03:16.667Z,98117.53
2022-09-03T01:05:42.831Z,98114.84
2022-09-03T01:08:09.042Z,98111.59
2022-09-03T01:10:35.241Z,98119.88
2022-09-03T01:13:01.458Z,98118.47
2022-09-03T01:15:27.700Z,98121.13
2022-09-03T01:17:53.946Z,98125.31
2022-09-03T01:20:20.234Z,98123.66
2022-09-03T01:22:47.129Z,98124.91
2022-09-03T01:25:13.267Z,98122.91
2022-09-03T01:27:39.401Z,98119.00
2022-09-03T01:30:05.581Z,98122.47
2022-09-03T01:32:31.724Z,98118.78
2022-09-03T01:34:57.881Z,98119.63
2022-09-03T01:37:24.242Z,98118.78
2022-09-03T01:39:50.474Z,98119.69
2022-09-03T01:42:20.936Z,98121.72
2022-09-03T01:44:47.403Z,98114.13
2022-09-03T01:47:17.537Z,98107.31
2022-09-03T01:49:43.671Z,98099.75
2022-09-03T01:52:09.822Z,98106.28
2022-09-03T01:54:35.977Z,98105.91
2022-09-03T01:57:02.113Z,98111.06
2022-09-03T01:59:28.284Z,98100.34
2022-09-03T02:01:54.567Z,98112.94
2022-09-03T02:04:20.756Z,98104.06
2022-09-03T02:06:46.926Z,98102.81
2022-09-03T02:09:13.071Z,98101.00
2022-09-03T02:11:39.373Z,98101.59
2022-09-03T02:14:05.535Z,98105.34
2022-09-03T02:16:31.686Z,98099.59
2022-09-03T02:18:57.816Z,98110.09
2022-09-03T02:21:23.986Z,98105.16
2022-09-03T02:23:50.126Z,98106.00
2022-09-03T02:26:16.267Z,98107.50
2022-09-03T02:28:42.466Z,98098.41
2022-09-03T02:31:08.628Z,98093.50
2022-09-03T02:33:34.853Z,98096.78
2022-09-03T02:36:01.007Z,98099.91
2022-09-03T02:38:27.160Z,98105.88
2022-09-03T02:40:53.348Z,98096.69
2022-09-03T02:43:19.572Z,98093.13
2022-09-03T02:45:46.183Z,98093.34
2022-09-03T02:48:12.448Z,98094.75
2022-09-03T02:50:38.605Z,98093.34
2022-09-03T02:53:04.748Z,98094.97
2022-09-03T02:55:30.885Z,98095.22
2022-09-03T02:57:57.054Z,98091.72
2022-09-03T03:00:23.212Z,98089.47
2022-09-03T03:02:49.429Z,98096.25
2022-09-03T03:05:15.611Z,98087.38
2022-09-03T03:07:41.759Z,98091.47
2022-09-03T03:10:07.930Z,98082.03
2022-09-03T03:12:34.102Z,98094.63
2022-09-03T03:15:00.293Z,98090.06
2022-09-03T03:17:26.420Z,98088.66
2022-09-03T03:19:52.587Z,98087.59
2022-09-03T03:22:18.735Z,98089.53
2022-09-03T03:24:44.866Z,98090.53
2022-09-03T03:27:11.038Z,98091.19
2022-09-03T03:29:37.193Z,98081.56
2022-09-03T03:32:03.359Z,98079.34
2022-09-03T03:34:29.510Z,98081.88
2022-09-03T03:36:55.659Z,98075.94
2022-09-03T03:39:21.835Z,98075.47
2022-09-03T03:41:48.009Z,98071.63
2022-09-03T03:44:14.147Z,98089.78
2022-09-03T03:46:40.291Z,98074.91
2022-09-03T03:49:06.447Z,98078.41
2022-09-03T03:51:32.589Z,98075.72
2022-09-03T03:54:02.013Z,98074.31
2022-09-03T03:56:30.612Z,98075.56
2022-09-03T03:58:56.732Z,98074.31
2022-09-03T04:01:22.940Z,98058.66
2022-09-03T04:03:49.100Z,98069.81
2022-09-03T04:06:15.230Z,98059.50
2022-09-03T04:08:41.710Z,98060.75
2022-09-03T04:11:08.362Z,98054.94
2022-09-03T04:13:34.498Z,98051.22
2022-09-03T04:16:00.639Z,98052.50
2022-09-03T04:18:26.816Z,98041.56
2022-09-03T04:20:52.964Z,98052.94
2022-09-03T04:23:19.093Z,98047.13
2022-09-03T04:25:45.232Z,98045.25
2022-09-03T04:28:11.377Z,98051.22
2022-09-03T04:30:38.838Z,98047.94
2022-09-03T04:33:05.043Z,98045.88
2022-09-03T04:35:31.219Z,98051.22
2022-09-03T04:37:57.367Z,98043.44
2022-09-03T04:40:23.523Z,98038.63
2022-09-03T04:42:49.664Z,98039.69
2022-09-03T04:45:15.807Z,98040.66
2022-09-03T04:47:42.459Z,98041.91
2022-09-03T04:50:08.598Z,98040.09
2022-09-03T04:52:34.736Z,98035.16
2022-09-03T04:55:00.903Z,98033.75
2022-09-03T04:57:27.041Z,98036.34
2022-09-03T04:59:53.192Z,98037.97
2022-09-03T05:02:19.354Z,98040.66
2022-09-03T05:04:45.574Z,98048.63
2022-09-03T05:07:11.708Z,98047.00
2022-09-03T05:09:37.865Z,98049.88
2022-09-03T05:12:04.025Z,98038.56
2022-09-03T05:14:30.632Z,98042.91
2022-09-03T05:16:56.813Z,98042.44
2022-09-03T05:19:22.961Z,98042.00
2022-09-03T05:21:49.341Z,98042.00
2022-09-03T05:24:15.523Z,98045.88
2022-09-03T05:26:41.656Z,98046.53
2022-09-03T05:29:07.808Z,98043.41
2022-09-03T05:31:34.079Z,98036.78
2022-09-03T05:34:00.345Z,98049.28
2022-09-03T05:36:26.480Z,98042.88
2022-09-03T05:38:52.643Z,98041.03
2022-09-03T05:41:19.029Z,98047.34
2022-09-03T05:43:45.359Z,98037.66
2022-09-03T05:46:11.603Z,98038.03
2022-09-03T05:48:37.800Z,98047.88
2022-09-03T05:51:03.945Z,98037.75
2022-09-03T05:53:30.179Z,98041.25
2022-09-03T05:55:56.335Z,98031.69
2022-09-03T05:58:22.503Z,98038.72
2022-09-03T06:00:48.667Z,98032.81
2022-09-03T06:03:14.920Z,98035.34
2022-09-03T06:05:41.181Z,98044.81
2022-09-03T06:08:07.333Z,98041.19
2022-09-03T06:10:40.662Z,98047.75
2022-09-03T06:13:07.679Z,98043.00
2022-09-03T06:15:33.823Z,98044.84
2022-09-03T06:17:59.965Z,98038.78
2022-09-03T06:20:26.179Z,98054.56
2022-09-03T06:22:52.453Z,98046.75
2022-09-03T06:25:18.632Z,98047.72
2022-09-03T06:27:44.840Z,98050.75
2022-09-03T06:30:11.028Z,98042.59
2022-09-03T06:32:37.174Z,98046.81
2022-09-03T06:35:03.387Z,98051.81
2022-09-03T06:37:29.530Z,98048.69
2022-09-03T06:39:55.731Z,98051.94
2022-09-03T06:42:21.944Z,98052.88
2022-09-03T06:44:48.082Z,98053.69
2022-09-03T06:47:14.217Z,98047.44
2022-09-03T06:49:40.388Z,98051.50
2022-09-03T06:52:07.114Z,98045.94
2022-09-03T06:54:33.246Z,98057.00
2022-09-03T06:56:59.413Z,98042.41
2022-09-03T06:59:25.577Z,98048.97
2022-09-03T07:01:51.813Z,98050.59
2022-09-03T07:04:19.141Z,98056.69
2022-09-03T07:06:45.586Z,98054.25
2022-09-03T07:09:11.743Z,98052.03
2022-09-03T07:11:38.185Z,98050.31
2022-09-03T07:14:04.333Z,98054.13
2022-09-03T07:16:30.557Z,98054.72
2022-09-03T07:18:56.830Z,98050.84
2022-09-03T07:21:22.957Z,98052.63
2022-09-03T07:23:49.097Z,98062.66
2022-09-03T07:26:15.291Z,98052.94
2022-09-03T07:28:41.474Z,98056.91
2022-09-03T07:31:07.627Z,98053.88
2022-09-03T07:33:34.036Z,98051.06
2022-09-03T07:36:00.197Z,98051.38
2022-09-03T07:38:26.341Z,98057.44
2022-09-03T07:40:52.494Z,98059.66
2022-09-03T07:43:18.643Z,98071.31
2022-09-03T07:45:44.774Z,98069.09
2022-09-03T07:48:10.931Z,98069.88
2022-09-03T07:50:37.070Z,98067.09
2022-09-03T07:53:03.217Z,98069.03
2022-09-03T07:55:29.367Z,98074.63
2022-09-03T07:57:55.518Z,98072.41
2022-09-03T08:00:21.640Z,98068.97
2022-09-03T08:02:48.158Z,98071.03
2022-09-03T08:05:14.280Z,98067.38
2022-09-03T08:07:40.418Z,98068.03
2022-09-03T08:10:07.873Z,98071.97
2022-09-03T08:12:34.007Z,98071.94
2022-09-03T08:15:00.133Z,98086.47
2022-09-03T08:17:26.285Z,98089.97
2022-09-03T08:19:52.417Z,98081.00
2022-09-03T08:22:18.576Z,98086.53
2022-09-03T08:24:44.756Z,98088.66
2022-09-03T08:27:10.894Z,98087.16
2022-09-03T08:29:37.055Z,98096.88
2022-09-03T08:32:05.272Z,98086.50
2022-09-03T08:34:31.654Z,98085.91
2022-09-03T08:36:57.801Z,98083.38
2022-09-03T08:39:24.030Z,98086.72
2022-09-03T08:41:50.218Z,98089.59
2022-09-03T08:44:16.360Z,98087.94
2022-09-03T08:46:42.569Z,98083.91
2022-09-03T08:49:08.735Z,98080.81
2022-09-03T08:51:34.861Z,98079.66
2022-09-03T08:54:01.014Z,98082.47
2022-09-03T08:56:27.161Z,98079.66
2022-09-03T08:58:53.289Z,98091.50
2022-09-03T09:01:19.492Z,98088.81
2022-09-03T09:03:45.698Z,98099.69
2022-09-03T09:06:11.833Z,98094.41
2022-09-03T09:08:37.993Z,98093.66
2022-09-03T09:11:04.139Z,98099.22
2022-09-03T09:13:30.337Z,98093.66
2022-09-03T09:15:56.557Z,98086.19
2022-09-03T09:18:22.718Z,98090.56
2022-09-03T09:20:48.852Z,98097.66
2022-09-03T09:23:15.020Z,98095.75
2022-09-03T09:25:41.145Z,98087.63
2022-09-03T09:28:07.269Z,98089.84
2022-09-03T09:30:33.439Z,98104.22
2022-09-03T09:32:59.566Z,98095.88
2022-09-03T09:35:25.688Z,98084.84
2022-09-03T09:37:51.842Z,98086.34
2022-09-03T09:40:18.034Z,98088.84
2022-09-03T09:42:44.260Z,98074.94
2022-09-03T09:45:10.442Z,98073.13
2022-09-03T09:47:36.572Z,98071.91
2022-09-03T09:50:02.794Z,98073.09
2022-09-03T09:52:28.975Z,98067.16
2022-09-03T09:54:55.116Z,98071.00
2022-09-03T09:57:21.270Z,98078.00
2022-09-03T09:59:47.409Z,98069.34
2022-09-03T10:02:13.665Z,98073.38
2022-09-03T10:04:48.018Z,98067.72
2022-09-03T10:07:14.319Z,98065.97
2022-09-03T10:09:40.505Z,98069.88
2022-09-03T10:12:06.654Z,98071.50
2022-09-03T10:14:32.796Z,98067.31
2022-09-03T10:16:58.941Z,98070.34
2022-09-03T10:19:25.093Z,98077.38
2022-09-03T10:21:51.273Z,98070.13
2022-09-03T10:24:17.413Z,98070.22
2022-09-03T10:26:43.582Z,98073.53
2022-09-03T10:29:09.752Z,98071.88
2022-09-03T10:31:35.973Z,98072.19
2022-09-03T10:34:02.177Z,98072.50
2022-09-03T10:36:28.392Z,98071.94
2022-09-03T10:38:54.530Z,98077.09
2022-09-03T10:41:20.680Z,98068.41
2022-09-03T10:43:46.824Z,98068.94
2022-09-03T10:46:12.981Z,98071.69
2022-09-03T10:48:39.187Z,98075.72
2022-09-03T10:51:05.337Z,98074.66
2022-09-03T10:53:31.493Z,98071.09
2022-09-03T10:55:57.636Z,98075.44
2022-09-03T10:58:23.822Z,98077.63
2022-09-03T11:00:50.065Z,98074.94
2022-09-03T11:03:16.204Z,98085.31
2022-09-03T11:05:47.340Z,98082.06
2022-09-03T11:08:13.498Z,98072.94
2022-09-03T11:10:39.639Z,98076.97
2022-09-03T11:13:06.321Z,98073.44
2022-09-03T11:15:32.554Z,98083.53
2022-09-03T11:17:58.773Z,98068.34
2022-09-03T11:20:24.941Z,98082.19
2022-09-03T11:22:51.154Z,98075.72
2022-09-03T11:25:17.303Z,98082.22
2022-09-03T11:27:43.463Z,98077.66
2022-09-03T11:30:09.629Z,98076.59
2022-09-03T11:32:35.783Z,98074.72
2022-09-03T11:35:01.934Z,98069.53
2022-09-03T11:37:28.203Z,98059.81
2022-09-03T11:39:54.409Z,98063.59
2022-09-03T11:42:22.781Z,98072.78
2022-09-03T11:44:51.158Z,98078.22
2022-09-03T11:47:18.139Z,98073.63
2022-09-03T11:49:44.301Z,98075.78
2022-09-03T11:52:10.448Z,98080.94
2022-09-03T11:54:36.583Z,98076.06
2022-09-03T11:57:02.766Z,98082.31
2022-09-03T11:59:28.911Z,98085.81
2022-09-03T12:01:55.052Z,98078.50
2022-09-03T12:04:21.266Z,98079.28
2022-09-03T12:06:47.447Z,98089.88
2022-09-03T12:09:13.599Z,98090.41
2022-09-03T12:11:39.750Z,98094.50
2022-09-03T12:14:06.446Z,98090.97
2022-09-03T12:16:33.181Z,98094.75
2022-09-03T12:18:59.341Z,98097.72
2022-09-03T12:21:25.482Z,98103.41
2022-09-03T12:23:51.624Z,98098.28
2022-09-03T12:26:24.524Z,98104.50
2022-09-03T12:28:51.854Z,98102.34
2022-09-03T12:31:18.171Z,98100.16
2022-09-03T12:33:44.353Z,98095.81
2022-09-03T12:36:10.486Z,98093.91
2022-09-03T12:39:00.702Z,98090.13
2022-09-03T12:41:26.918Z,98092.88
2022-09-03T12:43:53.735Z,98086.34
2022-09-03T12:46:20.034Z,98086.09
2022-09-03T12:49:29.688Z,98090.97
2022-09-03T12:51:56.720Z,98089.84
2022-09-03T12:54:23.207Z,98090.94
2022-09-03T12:56:49.355Z,98083.91
2022-09-03T12:59:15.490Z,98081.75
2022-09-03T13:01:41.839Z,98081.47
2022-09-03T13:04:08.093Z,98088.78
2022-09-03T13:06:36.480Z,98081.75
2022-09-03T13:09:02.628Z,98084.94
2022-09-03T13:11:28.784Z,98077.34
2022-09-03T13:13:54.920Z,98081.44
2022-09-03T13:16:21.112Z,98073.84
2022-09-03T13:18:47.316Z,98072.50
2022-09-03T13:21:13.452Z,98069.00
2022-09-03T13:23:39.649Z,98072.22
2022-09-03T13:26:06.311Z,98074.59
2022-09-03T13:28:32.675Z,98068.59
2022-09-03T13:30:59.421Z,98063.31
2022-09-03T13:33:26.541Z,98071.41
2022-09-03T13:35:55.512Z,98061.63
2022-09-03T13:38:21.696Z,98056.44
2022-09-03T13:40:47.830Z,98057.25
2022-09-03T13:43:13.986Z,98058.31
2022-09-03T13:45:40.905Z,98058.88
2022-09-03T13:48:07.107Z,98053.41
2022-09-03T13:50:33.253Z,98054.16
2022-09-03T13:52:59.486Z,98057.34
2022-09-03T13:55:25.660Z,98057.81
2022-09-03T13:57:51.817Z,98064.88
2022-09-03T14:00:18.045Z,98071.91
2022-09-03T14:02:44.262Z,98061.59
2022-09-03T14:05:10.444Z,98074.44
2022-09-03T14:07:36.609Z,98070.09
2022-09-03T14:10:02.762Z,98078.56
2022-09-03T14:12:28.914Z,98076.31
2022-09-03T14:14:55.077Z,98077.91
2022-09-03T14:17:21.220Z,98083.84
2022-09-03T14:19:47.363Z,98083.84
2022-09-03T14:22:13.508Z,98079.50
2022-09-03T14:24:39.652Z,98080.00
2022-09-03T14:27:05.803Z,98078.94
2022-09-03T14:29:31.961Z,98070.03
2022-09-03T14:31:58.172Z,98073.19
2022-09-03T14:34:24.336Z,98090.53
2022-09-03T14:36:51.129Z,98081.91
2022-09-03T14:39:18.279Z,98078.59
2022-09-03T14:41:44.490Z,98078.09
2022-09-03T14:44:10.670Z,98072.31
2022-09-03T14:46:36.824Z,98079.28
2022-09-03T14:49:03.018Z,98079.00
2022-09-03T14:51:29.190Z,98072.81
2022-09-03T14:53:55.334Z,98076.97
2022-09-03T14:56:21.476Z,98068.53
2022-09-03T14:58:47.644Z,98061.97
2022-09-03T15:01:13.857Z,98079.75
2022-09-03T15:03:40.020Z,98080.59
2022-09-03T15:06:06.190Z,98072.91
2022-09-03T15:08:32.342Z,98082.78
2022-09-03T15:10:58.468Z,98069.59
2022-09-03T15:13:26.109Z,98071.13
2022-09-03T15:15:52.567Z,98079.13
2022-09-03T15:18:18.693Z,98083.16
2022-09-03T15:20:44.870Z,98079.59
2022-09-03T15:23:11.013Z,98082.53
2022-09-03T15:25:37.134Z,98086.25
2022-09-03T15:28:03.577Z,98087.06
2022-09-03T15:30:29.721Z,98086.09
2022-09-03T15:32:55.852Z,98086.41
2022-09-03T15:35:22.002Z,98085.19
2022-09-03T15:37:48.141Z,98090.69
2022-09-03T15:40:14.290Z,98089.53
2022-09-03T15:42:40.434Z,98093.91
2022-09-03T15:45:06.573Z,98087.13
2022-09-03T15:47:41.240Z,98092.56
2022-09-03T15:50:17.669Z,98085.94
2022-09-03T15:52:43.798Z,98087.28
2022-09-03T15:55:09.936Z,98087.59
2022-09-03T15:57:36.098Z,98089.50
2022-09-03T16:00:02.455Z,98091.94
2022-09-03T16:02:28.591Z,98093.53
2022-09-03T16:04:54.738Z,98091.34
2022-09-03T16:07:20.879Z,98088.66
2022-09-03T16:10:02.013Z,98094.38
2022-09-03T16:12:33.163Z,98093.56
2022-09-03T16:14:59.326Z,98094.06
2022-09-03T16:17:25.457Z,98094.34
2022-09-03T16:19:51.588Z,98104.09
2022-09-03T16:22:17.742Z,98099.19
2022-09-03T16:24:43.872Z,98097.31
2022-09-03T16:27:10.028Z,98103.31
2022-09-03T16:29:37.416Z,98100.09
2022-09-03T16:32:03.540Z,98103.66
2022-09-03T16:34:30.191Z,98106.38
2022-09-03T16:36:56.317Z,98099.59
2022-09-03T16:39:22.494Z,98104.47
2022-09-03T16:41:49.385Z,98116.16
2022-09-03T16:44:15.513Z,98121.03
2022-09-03T16:46:41.672Z,98119.16
2022-09-03T16:49:07.814Z,98111.00
2022-09-03T16:51:33.945Z,98121.56
2022-09-03T16:54:00.092Z,98118.06
2022-09-03T16:56:26.236Z,98118.88
2022-09-03T16:58:52.492Z,98119.94
2022-09-03T17:01:18.814Z,98119.41
2022-09-03T17:03:45.024Z,98119.16
2022-09-03T17:06:11.168Z,98119.41
2022-09-03T17:08:37.300Z,98126.19
2022-09-03T17:11:03.460Z,98122.66
2022-09-03T17:13:29.849Z,98121.28
2022-09-03T17:15:56.035Z,98119.06
2022-09-03T17:18:22.225Z,98125.81
2022-09-03T17:20:49.568Z,98127.16
2022-09-03T17:23:15.837Z,98128.47
2022-09-03T17:25:41.982Z,98132.81
2022-09-03T17:28:08.321Z,98130.59
2022-09-03T17:30:34.455Z,98132.47
2022-09-03T17:33:00.627Z,98139.19
2022-09-03T17:35:26.801Z,98139.44
2022-09-03T17:37:52.939Z,98136.91
2022-09-03T17:40:19.085Z,98137.97
2022-09-03T17:42:45.224Z,98140.38
2022-09-03T17:45:11.353Z,98137.09
2022-09-03T17:47:37.496Z,98141.66
2022-09-03T17:50:03.629Z,98143.75
2022-09-03T17:52:29.757Z,98148.63
2022-09-03T17:54:55.934Z,98146.16
2022-09-03T17:57:22.066Z,98151.78
2022-09-03T17:59:48.206Z,98152.28
2022-09-03T18:02:14.355Z,98159.00
2022-09-03T18:04:41.648Z,98165.47
2022-09-03T18:07:07.785Z,98160.81
2022-09-03T18:09:37.738Z,98162.41
2022-09-03T18:12:04.178Z,98163.47
2022-09-03T18:14:30.358Z,98166.31
2022-09-03T18:16:56.535Z,98174.88
2022-09-03T18:19:22.665Z,98175.34
2022-09-03T18:21:48.806Z,98177.97
2022-09-03T18:24:14.958Z,98182.06
2022-09-03T18:26:41.134Z,98182.84
2022-09-03T18:29:07.281Z,98184.47
2022-09-03T18:31:33.485Z,98186.31
2022-09-03T18:33:59.625Z,98193.28
2022-09-03T18:36:25.766Z,98194.66
2022-09-03T18:38:51.971Z,98194.59
2022-09-03T18:41:18.670Z,98202.38
2022-09-03T18:43:44.816Z,98199.38
2022-09-03T18:48:57.960Z,98205.22
2022-09-03T18:51:24.186Z,98215.09
2022-09-03T18:53:50.327Z,98207.84
2022-09-03T18:56:17.569Z,98209.63
2022-09-03T18:58:43.732Z,98206.34
2022-09-03T19:01:09.876Z,98201.69
2022-09-03T19:03:36.009Z,98206.44
2022-09-03T19:06:02.178Z,98214.31
2022-09-03T19:08:28.325Z,98216.09
2022-09-03T19:10:54.470Z,98202.38
2022-09-03T19:13:20.608Z,98205.19
2022-09-03T19:15:46.774Z,98204.88
2022-09-03T19:18:12.939Z,98211.75
2022-09-03T19:20:39.098Z,98209.56
2022-09-03T19:23:05.228Z,98219.44
2022-09-03T19:25:31.364Z,98218.31
2022-09-03T19:28:00.171Z,98221.19
2022-09-03T19:30:26.522Z,98216.53
2022-09-03T19:32:52.673Z,98228.38
2022-09-03T19:35:18.831Z,98229.38
2022-09-03T19:37:44.975Z,98227.06
2022-09-03T19:40:11.114Z,98230.88
2022-09-03T19:42:37.308Z,98231.38
2022-09-03T19:45:03.460Z,98238.06
2022-09-03T19:47:29.620Z,98233.19
2022-09-03T19:49:55.774Z,98239.53
2022-09-03T19:52:21.908Z,98238.38
2022-09-03T19:54:48.044Z,98249.28
2022-09-03T19:57:14.211Z,98255.25
2022-09-03T19:59:40.366Z,98257.78
2022-09-03T20:02:06.502Z,98257.28
2022-09-03T20:04:32.672Z,98250.56
2022-09-03T20:06:58.814Z,98258.44
2022-09-03T20:09:24.966Z,98261.97
2022-09-03T20:11:51.114Z,98275.00
2022-09-03T20:14:17.256Z,98276.88
2022-09-03T20:16:43.406Z,98275.34
2022-09-03T20:19:09.566Z,98279.56
2022-09-03T20:21:35.729Z,98273.84
2022-09-03T20:24:02.724Z,98283.91
2022-09-03T20:26:28.867Z,98290.94
2022-09-03T20:28:55.004Z,98290.38
2022-09-03T20:31:21.190Z,98289.91
2022-09-03T20:33:47.412Z,98298.09
2022-09-03T20:36:13.549Z,98303.38
2022-09-03T20:38:39.692Z,98305.84
2022-09-03T20:41:05.829Z,98296.47
2022-09-03T20:43:31.958Z,98307.34
2022-09-03T20:45:58.163Z,98298.25
2022-09-03T20:48:25.003Z,98296.25
2022-09-03T20:50:51.232Z,98286.69
2022-09-03T20:53:17.382Z,98297.28
2022-09-03T20:55:43.539Z,98297.53
2022-09-03T20:58:09.691Z,98296.25
2022-09-03T21:00:39.044Z,98296.03
2022-09-03T21:03:05.209Z,98298.47
2022-09-03T21:05:31.374Z,98299.63
2022-09-03T21:07:57.497Z,98299.38
2022-09-03T21:10:23.659Z,98302.22
2022-09-03T21:12:49.799Z,98304.50
2022-09-03T21:15:15.936Z,98306.03
2022-09-03T21:17:42.088Z,98302.38
2022-09-03T21:20:08.223Z,98305.91
2022-09-03T21:22:34.363Z,98305.22
2022-09-03T21:25:00.518Z,98309.75
2022-09-03T21:27:26.651Z,98312.41
2022-09-03T21:29:52.794Z,98309.28
2022-09-03T21:32:18.945Z,98306.47
2022-09-03T21:34:45.076Z,98314.38
2022-09-03T21:37:11.216Z,98313.56
2022-09-03T21:39:37.463Z,98315.44
2022-09-03T21:42:03.614Z,98306.91
2022-09-03T21:44:29.748Z,98313.09
2022-09-03T21:46:56.412Z,98307.13
2022-09-03T21:49:22.544Z,98314.69
2022-09-03T21:51:48.926Z,98304.75
2022-09-03T21:54:15.154Z,98314.56
2022-09-03T21:56:41.397Z,98311.31
2022-09-03T21:59:09.358Z,98307.56
2022-09-03T22:01:35.823Z,98313.06
2022-09-03T22:04:02.022Z,98314.81
2022-09-03T22:06:28.141Z,98313.78
2022-09-03T22:08:54.285Z,98304.31
2022-09-03T22:11:20.414Z,98311.06
2022-09-03T22:13:46.538Z,98308.84
2022-09-03T22:16:12.889Z,98315.09
2022-09-03T22:18:39.049Z,98312.59
2022-09-03T22:21:05.189Z,98318.19
2022-09-03T22:23:31.340Z,98316.66
2022-09-03T22:25:57.473Z,98314.91
2022-09-03T22:28:23.610Z,98320.63
2022-09-03T22:30:49.825Z,98314.31
2022-09-03T22:33:16.013Z,98315.13
2022-09-03T22:35:42.155Z,98314.72
2022-09-03T22:38:08.305Z,98321.28
2022-09-03T22:40:34.442Z,98318.25
2022-09-03T22:43:00.578Z,98320.94
2022-09-03T22:45:26.731Z,98323.25
2022-09-03T22:47:52.862Z,98317.06
2022-09-03T22:50:19.422Z,98320.91
2022-09-03T22:52:45.870Z,98324.53
2022-09-03T22:55:12.007Z,98332.38
2022-09-03T22:57:38.141Z,98329.97
2022-09-03T23:00:04.304Z,98331.38
2022-09-03T23:02:30.455Z,98328.69
2022-09-03T23:04:56.593Z,98340.38
2022-09-03T23:07:22.963Z,98333.94
2022-09-03T23:09:49.108Z,98342.00
2022-09-03T23:12:15.247Z,98341.56
2022-09-03T23:14:41.406Z,98337.09
2022-09-03T23:17:07.557Z,98336.94
2022-09-03T23:19:33.689Z,98343.34
2022-09-03T23:21:59.843Z,98342.53
2022-09-03T23:24:25.981Z,98352.44
2022-09-03T23:26:52.119Z,98349.16
2022-09-03T23:29:18.273Z,98345.66
2022-09-03T23:31:44.426Z,98346.16
2022-09-03T23:34:10.560Z,98346.16
2022-09-03T23:36:57.989Z,98341.81
2022-09-03T23:39:22.852Z,98344.50
2022-09-03T23:41:49.044Z,98342.88
2022-09-03T23:44:17.394Z,98340.66
2022-09-03T23:46:43.637Z,98349.53
2022-09-03T23:49:09.789Z,98339.59
2022-09-03T23:51:35.927Z,98344.97
2022-09-03T23:54:02.066Z,98347.72
2022-09-03T23:56:28.510Z,98351.00
2022-09-03T23:58:54.646Z,98353.94
